Time;durP1;ratioP1;P1;durP2;ratioP2;P2;SDS_P1;SDS_P2;PMS_P1;PMS_P2;Temp;Humidity;BMP_temperature;BMP_pressure;BME280_temperature;BME280_humidity;BME280_pressure;Samples;Min_cycle;Max_cycle;Signal;HPM_P1;HPM_P2
2021/12/24 00:01:49;;;;;;;8.88;6.65;;;16.70;45.00;;;;;;5118847;28;20607;-40
2021/12/24 00:04:15;;;;;;;8.93;6.00;;;16.70;45.10;;;;;;5119004;28;20462;-40
2021/12/24 00:06:41;;;;;;;8.02;6.00;;;16.70;45.10;;;;;;5119275;28;20027;-40
2021/12/24 00:09:08;;;;;;;8.13;6.05;;;16.60;45.20;;;;;;5119305;28;20479;-41
2021/12/24 00:11:34;;;;;;;8.18;6.18;;;16.70;45.30;;;;;;5119590;28;20453;-46
2021/12/24 00:14:02;;;;;;;8.15;6.10;;;16.70;45.60;;;;;;5120149;28;20008;-42
2021/12/24 00:16:51;;;;;;;8.43;6.10;;;16.70;45.40;;;;;;5120207;28;20118;-44
2021/12/24 00:19:23;;;;;;;8.65;5.72;;;16.70;45.40;;;;;;5120055;28;20561;-40
2021/12/24 00:35:17;;;;;;;8.25;5.90;;;16.70;45.70;;;;;;5120690;28;20080;-40
2021/12/24 00:37:46;;;;;;;8.13;5.72;;;16.60;45.80;;;;;;5119399;28;20023;-41
2021/12/24 00:40:19;;;;;;;7.65;5.50;;;16.60;46.00;;;;;;5119642;28;20071;-41
2021/12/24 00:42:52;;;;;;;7.30;5.65;;;16.70;46.10;;;;;;5118774;28;20019;-44
2021/12/24 00:45:20;;;;;;;8.10;5.38;;;16.60;46.10;;;;;;5118294;28;20462;-40
2021/12/24 00:47:46;;;;;;;6.63;5.45;;;16.60;46.10;;;;;;5118695;28;20108;-41
2021/12/24 00:50:16;;;;;;;7.30;5.68;;;16.60;46.10;;;;;;5118724;28;20012;-40
2021/12/24 00:52:50;;;;;;;8.00;5.78;;;16.60;46.10;;;;;;5118841;28;20008;-43
2021/12/24 00:55:19;;;;;;;7.78;5.35;;;16.60;46.20;;;;;;5118709;28;20467;-41
2021/12/24 00:57:47;;;;;;;7.88;5.30;;;16.60;46.30;;;;;;5114095;28;20466;-40
2021/12/24 01:00:35;;;;;;;7.32;5.22;;;16.60;46.30;;;;;;5114866;28;20024;-40
2021/12/24 01:03:01;;;;;;;8.73;5.60;;;16.60;46.40;;;;;;5114662;28;20015;-43
2021/12/24 01:05:28;;;;;;;8.43;5.85;;;16.60;46.50;;;;;;5114815;28;20485;-40
2021/12/24 01:07:54;;;;;;;7.05;5.32;;;16.60;46.50;;;;;;5114898;28;20068;-40
2021/12/24 01:10:27;;;;;;;6.70;5.60;;;16.60;46.70;;;;;;5114544;28;20091;-42
2021/12/24 01:12:52;;;;;;;7.53;5.60;;;16.50;46.60;;;;;;5117188;28;20020;-42
2021/12/24 01:15:19;;;;;;;8.48;5.70;;;16.50;46.60;;;;;;5099035;28;20012;-40
2021/12/24 01:20:29;;;;;;;8.02;5.45;;;16.50;46.80;;;;;;5116598;28;20046;-40
2021/12/24 01:25:43;;;;;;;7.43;5.38;;;16.50;46.80;;;;;;5100417;28;20056;-40
2021/12/24 01:44:24;;;;;;;7.13;5.13;;;16.50;47.20;;;;;;5114515;28;20058;-39
2021/12/24 01:46:51;;;;;;;6.70;5.00;;;16.50;47.30;;;;;;5114481;28;20015;-41
2021/12/24 01:49:16;;;;;;;7.45;5.55;;;16.50;47.40;;;;;;5114143;28;20027;-39
2021/12/24 01:51:42;;;;;;;7.10;5.00;;;16.50;47.50;;;;;;5114097;28;20028;-40
2021/12/24 01:54:11;;;;;;;8.25;5.40;;;16.50;47.50;;;;;;5114408;28;20046;-45
2021/12/24 01:56:37;;;;;;;7.72;5.35;;;16.50;47.50;;;;;;5115525;28;20042;-41
2021/12/24 01:59:03;;;;;;;7.00;5.50;;;16.50;47.50;;;;;;5115759;28;20095;-40
2021/12/24 02:01:29;;;;;;;7.57;5.03;;;16.50;47.50;;;;;;5115514;28;20043;-40
2021/12/24 02:03:55;;;;;;;8.07;5.35;;;16.50;47.50;;;;;;5115808;28;20024;-39
2021/12/24 02:06:22;;;;;;;6.72;5.05;;;16.50;47.80;;;;;;5115443;28;20019;-40
2021/12/24 02:08:48;;;;;;;6.35;5.20;;;16.50;47.90;;;;;;5115181;28;20026;-41
2021/12/24 02:11:15;;;;;;;7.38;4.97;;;16.50;47.70;;;;;;5115951;28;20020;-39
2021/12/24 02:13:41;;;;;;;8.23;5.10;;;16.40;47.70;;;;;;5115487;28;20015;-50
2021/12/24 02:16:18;;;;;;;7.78;5.22;;;16.40;47.70;;;;;;5115473;28;20035;-40
2021/12/24 02:29:40;;;;;;;6.57;4.85;;;16.40;48.00;;;;;;5115755;28;20046;-43
2021/12/24 02:32:07;;;;;;;7.15;4.90;;;16.40;48.00;;;;;;5115231;28;20061;-40
2021/12/24 02:34:33;;;;;;;7.47;5.22;;;16.40;48.00;;;;;;5096736;28;20023;-40
2021/12/24 02:36:59;;;;;;;8.60;4.95;;;16.40;48.30;;;;;;5114940;28;20023;-40
2021/12/24 02:39:28;;;;;;;8.20;5.00;;;16.40;48.20;;;;;;5115211;28;20016;-40
2021/12/24 02:41:54;;;;;;;7.50;4.90;;;16.40;48.10;;;;;;5114723;28;20012;-46
2021/12/24 02:44:20;;;;;;;7.10;4.90;;;16.40;48.30;;;;;;5114367;28;20015;-40
2021/12/24 02:55:15;;;;;;;6.97;4.72;;;16.40;48.40;;;;;;5082707;28;20028;-39
2021/12/24 02:57:41;;;;;;;6.60;4.80;;;16.40;48.50;;;;;;5114399;28;20018;-42
2021/12/24 03:00:14;;;;;;;7.00;4.75;;;16.40;48.40;;;;;;5114159;28;20016;-40
2021/12/24 03:02:42;;;;;;;6.88;4.80;;;16.40;48.40;;;;;;5114516;28;20497;-40
2021/12/24 03:05:08;;;;;;;6.82;4.50;;;16.40;48.60;;;;;;5114441;28;20036;-39
2021/12/24 03:07:33;;;;;;;6.90;4.50;;;16.40;48.50;;;;;;5113932;28;20575;-40
2021/12/24 03:10:00;;;;;;;6.78;4.80;;;16.40;48.60;;;;;;5114659;28;20048;-41
2021/12/24 03:12:30;;;;;;;7.82;5.10;;;16.30;48.60;;;;;;5114418;28;20016;-40
2021/12/24 03:14:56;;;;;;;7.53;5.25;;;16.30;48.60;;;;;;5114443;28;20016;-40
2021/12/24 03:17:24;;;;;;;7.63;5.15;;;16.30;48.70;;;;;;5113876;28;20066;-41
2021/12/24 03:19:52;;;;;;;6.88;5.15;;;16.40;48.70;;;;;;5114237;28;20024;-41
2021/12/24 03:24:43;;;;;;;6.90;4.60;;;16.30;48.70;;;;;;5118188;28;20024;-40
2021/12/24 03:27:10;;;;;;;6.72;4.40;;;16.30;48.90;;;;;;5118042;28;20020;-40
2021/12/24 03:29:36;;;;;;;7.07;4.60;;;16.30;48.90;;;;;;5117593;28;20435;-44
2021/12/24 03:32:02;;;;;;;6.65;4.60;;;16.30;48.90;;;;;;5117609;28;20071;-43
2021/12/24 03:34:29;;;;;;;6.93;4.78;;;16.30;48.90;;;;;;5099336;28;20043;-40
2021/12/24 03:36:55;;;;;;;7.32;4.57;;;16.30;48.90;;;;;;5116966;28;20015;-41
2021/12/24 03:39:21;;;;;;;6.22;4.38;;;16.30;48.90;;;;;;5116946;28;20016;-40
2021/12/24 03:41:47;;;;;;;6.47;4.50;;;16.30;49.10;;;;;;5099641;28;20489;-40
2021/12/24 03:44:14;;;;;;;6.97;4.40;;;16.30;49.10;;;;;;5100541;28;20023;-41
2021/12/24 03:47:42;;;;;;;5.82;4.30;;;16.30;49.20;;;;;;5118805;28;20016;-41
2021/12/24 03:49:39;;;;;;;6.28;4.35;;;16.20;49.10;;;;;;5096572;28;20487;-42
2021/12/24 03:52:23;;;;;;;7.03;4.88;;;16.30;49.10;;;;;;5118954;28;20016;-40
2021/12/24 03:54:56;;;;;;;6.28;4.40;;;16.30;49.20;;;;;;5118498;28;20019;-42
2021/12/24 03:57:24;;;;;;;7.18;4.80;;;16.30;49.30;;;;;;5117860;28;20012;-44
2021/12/24 03:59:51;;;;;;;7.93;5.15;;;16.30;49.20;;;;;;5116542;28;20024;-41
2021/12/24 04:02:17;;;;;;;7.15;4.57;;;16.30;49.20;;;;;;5116804;28;20065;-40
2021/12/24 04:04:43;;;;;;;6.03;4.15;;;16.20;49.30;;;;;;5098679;28;20031;-40
2021/12/24 04:07:10;;;;;;;7.93;4.53;;;16.30;49.30;;;;;;5116287;28;20016;-41
2021/12/24 04:09:38;;;;;;;7.15;4.43;;;16.30;49.30;;;;;;5116869;28;20011;-40
2021/12/24 04:12:04;;;;;;;7.10;4.40;;;16.30;49.50;;;;;;5118269;28;20069;-46
2021/12/24 04:14:30;;;;;;;7.97;4.40;;;16.20;49.30;;;;;;5119427;28;20034;-45
2021/12/24 04:16:56;;;;;;;7.70;4.53;;;16.20;49.40;;;;;;5119839;28;20061;-41
2021/12/24 04:19:37;;;;;;;7.43;4.38;;;16.20;49.40;;;;;;5119553;28;20100;-42
2021/12/24 04:24:52;;;;;;;7.60;4.40;;;16.20;49.40;;;;;;5119664;28;20031;-42
2021/12/24 04:27:20;;;;;;;7.30;4.15;;;16.20;49.40;;;;;;5119989;28;20474;-42
2021/12/24 04:29:46;;;;;;;7.03;4.18;;;16.20;49.50;;;;;;5120519;28;20351;-44
2021/12/24 04:32:16;;;;;;;6.53;4.15;;;16.20;49.50;;;;;;5120130;28;20019;-41
2021/12/24 04:34:46;;;;;;;5.75;4.30;;;16.20;49.60;;;;;;5120033;28;20065;-39
2021/12/24 05:03:51;;;;;;;6.80;4.10;;;16.20;49.80;;;;;;5120069;28;20408;-41
2021/12/24 05:06:47;;;;;;;5.43;4.00;;;16.20;50.00;;;;;;5119601;28;20027;-42
2021/12/24 05:09:15;;;;;;;6.32;4.18;;;16.20;50.10;;;;;;5120069;28;20041;-40
2021/12/24 05:11:42;;;;;;;6.78;4.05;;;16.20;50.10;;;;;;5119039;28;20016;-40
2021/12/24 05:14:31;;;;;;;6.63;4.05;;;16.20;50.10;;;;;;5117705;28;20015;-41
2021/12/24 05:17:16;;;;;;;7.15;4.30;;;16.20;50.00;;;;;;5118809;28;20070;-40
2021/12/24 05:22:30;;;;;;;8.20;4.68;;;16.20;50.20;;;;;;5117801;28;20543;-40
2021/12/24 05:24:56;;;;;;;;;;;16.10;50.20;;;;;;5117840;28;20462;-40
2021/12/24 05:27:23;;;;;;;6.40;3.88;;;16.20;50.20;;;;;;5116992;28;20452;-40
2021/12/24 05:29:48;;;;;;;7.80;4.13;;;16.10;50.20;;;;;;5099767;28;20023;-40
2021/12/24 05:32:14;;;;;;;7.07;3.88;;;16.10;50.30;;;;;;5098601;28;20016;-41
2021/12/24 05:34:40;;;;;;;7.63;4.10;;;16.10;50.20;;;;;;5100077;28;20087;-40
2021/12/24 05:37:06;;;;;;;7.43;4.18;;;16.10;50.20;;;;;;5118089;28;20038;-42
2021/12/24 05:39:34;;;;;;;6.78;4.07;;;16.10;50.40;;;;;;5116955;28;20526;-40
2021/12/24 05:42:00;;;;;;;7.95;4.18;;;16.20;50.30;;;;;;5116568;28;20016;-39
2021/12/24 05:44:26;;;;;;;6.55;3.78;;;16.10;50.30;;;;;;5116425;28;20020;-40
2021/12/24 05:46:52;;;;;;;7.75;4.60;;;16.10;50.30;;;;;;5116765;28;20026;-40
2021/12/24 05:49:18;;;;;;;6.13;4.10;;;16.10;50.40;;;;;;5116820;28;20028;-41
2021/12/24 05:51:44;;;;;;;8.93;4.07;;;16.10;50.40;;;;;;5117549;28;20027;-42
2021/12/24 05:54:10;;;;;;;6.53;3.67;;;16.10;50.40;;;;;;5098583;28;20015;-40
2021/12/24 05:56:36;;;;;;;7.18;4.03;;;16.10;50.50;;;;;;5117041;28;20465;-39
2021/12/24 05:59:02;;;;;;;6.40;3.92;;;16.10;50.40;;;;;;5116883;28;20020;-40
2021/12/24 06:01:28;;;;;;;7.68;3.92;;;16.10;50.40;;;;;;5116678;28;20023;-43
2021/12/24 06:03:55;;;;;;;5.95;3.83;;;16.10;50.50;;;;;;5098957;28;20478;-40
2021/12/24 06:06:21;;;;;;;7.10;3.83;;;16.10;50.50;;;;;;5116831;28;20057;-41
2021/12/24 06:08:47;;;;;;;7.28;3.58;;;16.10;50.50;;;;;;5116475;28;20076;-40
2021/12/24 06:11:14;;;;;;;7.07;4.03;;;16.10;50.50;;;;;;5116778;28;20027;-40
2021/12/24 06:13:40;;;;;;;7.70;4.25;;;16.10;50.60;;;;;;5116315;28;20072;-41
2021/12/24 06:16:07;;;;;;;7.70;4.05;;;16.10;50.50;;;;;;5116058;28;20035;-40
2021/12/24 06:18:35;;;;;;;6.40;3.85;;;16.10;50.60;;;;;;5116485;28;20486;-41
2021/12/24 06:21:02;;;;;;;5.90;3.67;;;16.10;50.60;;;;;;5116961;28;20016;-44
2021/12/24 06:23:28;;;;;;;7.53;3.97;;;16.10;50.60;;;;;;5117423;28;20016;-39
2021/12/24 06:25:55;;;;;;;7.25;3.70;;;16.10;50.80;;;;;;5099177;28;20031;-40
2021/12/24 06:28:22;;;;;;;7.05;3.78;;;16.10;50.80;;;;;;5117699;28;20030;-40
2021/12/24 06:30:47;;;;;;;7.00;3.80;;;16.10;50.70;;;;;;5118480;28;20077;-42
2021/12/24 06:33:13;;;;;;;6.82;3.92;;;16.10;50.70;;;;;;5100543;28;20482;-40
2021/12/24 06:35:39;;;;;;;5.60;3.58;;;16.00;50.70;;;;;;5118039;28;20016;-40
2021/12/24 06:38:05;;;;;;;5.95;3.88;;;16.10;50.80;;;;;;5099452;28;20020;-42
2021/12/24 06:40:30;;;;;;;7.18;4.35;;;16.10;50.90;;;;;;5117181;28;20015;-44
2021/12/24 06:42:57;;;;;;;7.47;4.13;;;16.10;51.00;;;;;;5099030;28;20095;-40
2021/12/24 06:45:24;;;;;;;7.53;4.13;;;16.00;50.90;;;;;;5116848;28;20015;-40
2021/12/24 06:47:51;;;;;;;7.18;4.18;;;16.10;50.90;;;;;;5116026;28;20028;-40
2021/12/24 06:50:17;;;;;;;5.30;3.67;;;16.10;51.00;;;;;;5116359;28;20019;-41
2021/12/24 06:52:43;;;;;;;6.45;3.72;;;16.00;50.90;;;;;;5097830;28;20008;-41
2021/12/24 06:55:10;;;;;;;7.22;4.05;;;16.00;51.00;;;;;;5117007;28;20020;-41
2021/12/24 06:57:37;;;;;;;5.93;3.60;;;16.00;51.00;;;;;;5121106;28;20030;-41
2021/12/24 07:00:04;;;;;;;7.32;4.03;;;16.00;50.90;;;;;;5120974;28;20098;-41
2021/12/24 07:02:30;;;;;;;6.93;3.85;;;16.00;50.90;;;;;;5121581;28;20103;-40
2021/12/24 07:04:57;;;;;;;7.10;3.72;;;16.00;51.10;;;;;;5120989;28;20015;-40
2021/12/24 07:07:23;;;;;;;5.75;3.80;;;16.00;51.00;;;;;;5120637;28;20083;-41
2021/12/24 07:09:49;;;;;;;7.22;4.07;;;16.00;50.90;;;;;;5102653;28;20038;-41
2021/12/24 07:12:16;;;;;;;8.25;4.05;;;16.00;51.10;;;;;;5120791;28;20011;-42
2021/12/24 07:14:42;;;;;;;7.75;4.03;;;16.10;51.20;;;;;;5102223;28;20498;-44
2021/12/24 07:17:07;;;;;;;5.43;3.88;;;16.00;51.20;;;;;;5118873;28;20048;-40
2021/12/24 07:19:34;;;;;;;7.10;3.60;;;16.00;51.10;;;;;;5119208;28;20016;-40
2021/12/24 07:21:59;;;;;;;7.05;3.70;;;16.00;51.20;;;;;;5119355;28;20015;-40
2021/12/24 07:24:25;;;;;;;7.30;3.95;;;16.00;51.20;;;;;;5119289;28;20038;-40
2021/12/24 07:26:51;;;;;;;7.30;3.53;;;16.00;51.10;;;;;;5118021;28;20488;-41
2021/12/24 07:29:16;;;;;;;6.65;3.65;;;16.00;51.20;;;;;;5116653;28;20028;-40
2021/12/24 07:31:42;;;;;;;6.88;3.60;;;16.00;51.10;;;;;;5117498;28;20068;-40
2021/12/24 07:34:09;;;;;;;7.07;3.78;;;16.00;51.20;;;;;;5082383;28;20114;-40
2021/12/24 07:36:34;;;;;;;6.60;4.03;;;16.00;51.40;;;;;;5117653;28;20032;-40
2021/12/24 07:39:00;;;;;;;6.35;3.70;;;16.00;51.90;;;;;;5098792;28;20516;-40
2021/12/24 07:41:26;;;;;;;7.43;3.47;;;16.00;51.40;;;;;;5116902;28;20051;-41
2021/12/24 07:43:53;;;;;;;9.95;4.55;;;16.00;51.40;;;;;;5081735;28;20113;-40
2021/12/24 07:46:19;;;;;;;6.22;3.72;;;16.00;51.50;;;;;;5098600;28;20024;-40
2021/12/24 07:48:48;;;;;;;6.88;3.90;;;16.00;51.40;;;;;;5117251;28;20016;-41
2021/12/24 07:54:00;;;;;;;6.15;3.40;;;16.00;51.40;;;;;;5101430;28;20031;-41
2021/12/24 07:56:30;;;;;;;7.35;3.50;;;16.00;51.60;;;;;;5116781;28;20020;-40
2021/12/24 07:58:56;;;;;;;11.63;3.90;;;16.00;51.50;;;;;;5116171;28;20008;-41
2021/12/24 08:01:25;;;;;;;6.65;3.45;;;16.00;51.50;;;;;;5116575;28;20030;-40
2021/12/24 08:03:52;;;;;;;7.30;3.97;;;16.00;51.40;;;;;;5116388;28;20027;-40
2021/12/24 08:06:19;;;;;;;7.82;3.83;;;16.00;51.60;;;;;;5115576;28;20517;-40
2021/12/24 08:08:45;;;;;;;6.50;3.72;;;16.00;51.60;;;;;;5115972;28;20094;-40
2021/12/24 08:11:11;;;;;;;6.88;3.80;;;16.00;52.10;;;;;;5116292;28;20054;-39
2021/12/24 08:13:37;;;;;;;6.95;3.65;;;16.00;51.60;;;;;;5100936;28;20012;-40
2021/12/24 08:16:03;;;;;;;5.30;3.40;;;15.90;51.50;;;;;;5100127;28;20085;-41
2021/12/24 08:18:29;;;;;;;7.35;3.80;;;15.90;51.70;;;;;;5100674;28;20099;-40
2021/12/24 08:20:55;;;;;;;8.48;3.72;;;15.90;51.80;;;;;;5118634;28;20035;-43
2021/12/24 08:23:21;;;;;;;5.03;3.63;;;15.90;51.70;;;;;;5100523;28;20028;-40
2021/12/24 08:25:47;;;;;;;7.20;3.88;;;15.90;51.60;;;;;;5100578;28;20504;-42
2021/12/24 08:28:13;;;;;;;7.20;3.60;;;15.90;51.70;;;;;;5120085;28;20145;-42
2021/12/24 08:30:40;;;;;;;6.72;3.42;;;15.90;51.90;;;;;;5119267;28;20072;-40
2021/12/24 08:33:10;;;;;;;7.10;3.75;;;15.90;51.90;;;;;;5119033;28;20080;-40
2021/12/24 08:35:36;;;;;;;7.25;3.70;;;15.90;51.80;;;;;;5119023;28;20095;-40
2021/12/24 08:38:02;;;;;;;6.97;3.67;;;15.90;51.70;;;;;;5100045;28;20439;-44
2021/12/24 08:40:28;;;;;;;5.75;3.60;;;15.90;51.80;;;;;;5118983;28;20015;-40
2021/12/24 08:42:54;;;;;;;6.07;3.78;;;15.90;51.90;;;;;;5119799;28;20035;-40
2021/12/24 08:45:20;;;;;;;7.85;4.13;;;15.90;51.90;;;;;;5100959;28;20024;-41
2021/12/24 08:47:46;;;;;;;6.50;3.55;;;15.90;51.90;;;;;;5101450;28;20028;-39
2021/12/24 08:50:13;;;;;;;6.78;3.95;;;15.90;52.00;;;;;;5119359;28;20480;-42
2021/12/24 08:52:42;;;;;;;6.35;3.53;;;15.90;51.90;;;;;;5120078;28;20011;-40
2021/12/24 08:55:09;;;;;;;6.47;3.80;;;15.90;51.90;;;;;;5120534;28;20012;-42
2021/12/24 08:57:35;;;;;;;7.65;3.40;;;15.90;52.00;;;;;;5100563;28;20026;-41
2021/12/24 09:00:01;;;;;;;7.40;3.60;;;15.90;52.00;;;;;;5118392;28;20478;-44
2021/12/24 09:02:28;;;;;;;7.13;3.88;;;15.90;52.00;;;;;;5099511;28;20050;-39
2021/12/24 09:04:55;;;;;;;6.55;3.95;;;15.90;52.10;;;;;;5118333;28;20016;-40
2021/12/24 09:07:20;;;;;;;6.97;3.90;;;16.00;52.10;;;;;;5118559;28;20488;-42
2021/12/24 09:09:46;;;;;;;7.32;3.58;;;15.90;52.00;;;;;;5117587;28;20031;-40
2021/12/24 09:12:12;;;;;;;7.45;3.85;;;15.90;52.00;;;;;;5120146;28;20044;-40
2021/12/24 09:14:38;;;;;;;7.63;4.07;;;15.90;52.00;;;;;;5102744;28;20102;-41
2021/12/24 09:17:04;;;;;;;8.05;3.90;;;15.90;52.10;;;;;;5087744;28;20104;-42
2021/12/24 09:19:34;;;;;;;8.00;3.88;;;15.90;52.70;;;;;;5077000;28;20548;-41
2021/12/24 09:21:59;;;;;;;8.02;4.00;;;16.00;52.20;;;;;;5079336;28;20025;-42
2021/12/24 09:24:26;;;;;;;8.23;4.20;;;16.00;52.10;;;;;;5078040;28;20025;-41
2021/12/24 09:26:57;;;;;;;5.50;3.25;;;15.90;52.00;;;;;;5077018;28;20062;-40
2021/12/24 09:29:23;;;;;;;6.78;3.58;;;15.90;52.00;;;;;;5076827;28;20079;-40
2021/12/24 09:31:49;;;;;;;9.15;3.90;;;15.90;52.10;;;;;;5075400;28;20047;-41
2021/12/24 09:34:16;;;;;;;5.25;3.50;;;15.90;52.10;;;;;;5076292;28;20067;-41
2021/12/24 09:36:41;;;;;;;9.27;4.10;;;15.90;52.00;;;;;;5077177;28;20032;-42
2021/12/24 09:39:09;;;;;;;7.32;4.03;;;15.90;52.10;;;;;;5076160;28;20016;-42
2021/12/24 09:41:35;;;;;;;8.05;4.32;;;16.00;52.10;;;;;;5075301;28;20027;-40
2021/12/24 09:44:03;;;;;;;7.80;4.30;;;16.00;52.10;;;;;;5075225;28;20033;-41
2021/12/24 09:46:29;;;;;;;6.90;3.70;;;16.00;52.10;;;;;;5074807;28;20016;-41
2021/12/24 09:48:54;;;;;;;7.90;3.83;;;15.90;52.10;;;;;;5075395;28;20112;-40
2021/12/24 09:51:24;;;;;;;6.00;3.60;;;15.90;52.10;;;;;;5075328;28;20028;-39
2021/12/24 09:53:50;;;;;;;5.97;3.80;;;15.90;52.20;;;;;;5074188;28;20016;-46
2021/12/24 09:56:18;;;;;;;6.40;3.67;;;15.90;52.20;;;;;;5074013;28;20516;-40
2021/12/24 09:58:45;;;;;;;7.10;3.97;;;15.90;52.20;;;;;;5073953;28;20032;-39
2021/12/24 10:01:34;;;;;;;6.40;3.50;;;15.90;52.10;;;;;;5073640;28;20090;-41
2021/12/24 10:04:05;;;;;;;7.35;3.80;;;15.90;52.10;;;;;;5074858;28;20021;-39
2021/12/24 10:06:31;;;;;;;6.53;3.53;;;15.90;52.30;;;;;;5074509;28;20028;-40
2021/12/24 10:09:12;;;;;;;8.43;3.95;;;15.90;52.20;;;;;;5074174;28;20051;-41
2021/12/24 10:11:47;;;;;;;7.85;4.30;;;15.90;52.30;;;;;;5074634;28;20019;-40
2021/12/24 10:14:14;;;;;;;8.15;4.05;;;15.90;52.40;;;;;;5074764;28;20078;-40
2021/12/24 10:16:44;;;;;;;6.45;3.70;;;15.90;52.20;;;;;;5089310;28;20051;-40
2021/12/24 10:19:09;;;;;;;6.15;3.85;;;15.90;52.20;;;;;;5114132;28;20470;-40
2021/12/24 10:21:35;;;;;;;6.88;3.70;;;15.90;52.20;;;;;;5096345;28;20076;-40
2021/12/24 10:24:03;;;;;;;6.50;3.80;;;15.90;52.30;;;;;;5114802;28;20381;-40
2021/12/24 10:26:40;;;;;;;6.10;3.50;;;15.90;52.30;;;;;;5114321;28;20068;-40
2021/12/24 10:29:27;;;;;;;6.18;3.60;;;15.90;52.20;;;;;;5096379;28;20024;-40
2021/12/24 10:31:58;;;;;;;7.18;3.90;;;15.90;52.30;;;;;;5119468;28;20027;-40
2021/12/24 10:34:27;;;;;;;7.05;3.70;;;15.90;52.40;;;;;;5119325;28;20011;-40
2021/12/24 10:37:09;;;;;;;7.20;3.80;;;15.90;52.30;;;;;;5118776;28;20008;-40
2021/12/24 10:39:49;;;;;;;6.72;4.15;;;15.90;52.30;;;;;;5119095;28;20411;-42
2021/12/24 10:42:32;;;;;;;6.00;3.70;;;15.90;52.50;;;;;;5119474;28;20090;-42
2021/12/24 10:44:58;;;;;;;7.53;3.70;;;15.90;52.40;;;;;;5118844;28;20505;-40
2021/12/24 10:47:28;;;;;;;6.65;4.10;;;15.90;52.30;;;;;;5100799;28;20016;-41
2021/12/24 10:53:21;;;;;;;6.70;3.88;;;15.90;52.40;;;;;;5119191;28;20032;-42
2021/12/24 10:55:49;;;;;;;7.18;3.83;;;15.90;52.40;;;;;;5119588;28;20023;-39
2021/12/24 10:58:20;;;;;;;7.72;4.10;;;15.90;52.40;;;;;;5119614;28;20031;-41
2021/12/24 11:00:50;;;;;;;7.30;4.43;;;15.90;52.40;;;;;;5119282;28;20011;-41
2021/12/24 11:03:20;;;;;;;6.53;3.73;;;15.90;52.40;;;;;;5119604;28;20015;-40
2021/12/24 11:05:46;;;;;;;7.50;4.00;;;15.90;52.30;;;;;;5118449;28;20250;-40
2021/12/24 11:08:14;;;;;;;8.00;4.03;;;15.90;52.30;;;;;;5118524;28;20028;-40
2021/12/24 11:10:42;;;;;;;6.18;3.80;;;15.90;52.20;;;;;;5118232;28;20489;-40
2021/12/24 11:13:12;;;;;;;7.30;4.10;;;15.90;52.40;;;;;;5117746;28;20015;-39
2021/12/24 11:15:42;;;;;;;7.28;4.10;;;15.90;52.30;;;;;;5118416;28;20023;-40
2021/12/24 11:18:19;;;;;;;6.32;3.78;;;15.90;52.40;;;;;;5118431;28;20056;-42
2021/12/24 11:20:45;;;;;;;6.53;3.95;;;15.90;52.50;;;;;;5118191;28;20011;-41
2021/12/24 11:23:13;;;;;;;6.70;3.50;;;15.90;52.40;;;;;;5118826;28;20027;-39
2021/12/24 11:25:41;;;;;;;8.85;4.25;;;15.90;52.40;;;;;;5118547;28;20019;-40
2021/12/24 11:28:08;;;;;;;6.18;3.88;;;15.90;52.50;;;;;;5118413;28;20019;-40
2021/12/24 11:30:36;;;;;;;7.63;4.10;;;15.90;52.50;;;;;;5100662;28;20012;-39
2021/12/24 11:33:01;;;;;;;7.25;4.40;;;15.90;52.50;;;;;;5118276;28;20019;-42
2021/12/24 11:35:28;;;;;;;7.80;4.25;;;15.90;52.40;;;;;;5117514;28;20016;-39
2021/12/24 11:37:54;;;;;;;6.57;3.85;;;15.90;52.50;;;;;;5099295;28;20026;-39
2021/12/24 11:40:21;;;;;;;8.05;4.22;;;15.90;52.50;;;;;;5117976;28;20022;-39
2021/12/24 11:42:50;;;;;;;7.80;3.97;;;15.90;52.60;;;;;;5116378;28;20019;-40
2021/12/24 11:45:16;;;;;;;6.38;3.95;;;15.90;52.50;;;;;;5117522;28;20022;-40
2021/12/24 11:47:42;;;;;;;5.45;3.55;;;15.90;52.60;;;;;;5099652;28;20474;-39
2021/12/24 11:50:08;;;;;;;8.45;3.83;;;15.90;52.50;;;;;;5117801;28;20004;-39
2021/12/24 11:52:33;;;;;;;5.55;3.70;;;15.90;52.60;;;;;;5117849;28;20039;-40
2021/12/24 11:55:00;;;;;;;7.53;4.00;;;15.90;52.50;;;;;;5099923;28;20018;-40
2021/12/24 11:57:26;;;;;;;6.40;4.07;;;15.80;53.10;;;;;;5099155;28;20478;-40
2021/12/24 11:59:52;;;;;;;6.35;4.07;;;15.90;52.60;;;;;;5117440;28;20030;-40
2021/12/24 12:02:45;;;;;;;7.20;4.32;;;15.90;52.60;;;;;;5117699;28;20018;-39
2021/12/24 12:05:26;;;;;;;6.38;4.20;;;15.90;52.50;;;;;;5117582;28;20024;-39
2021/12/24 12:07:52;;;;;;;5.95;4.00;;;15.90;52.60;;;;;;5099125;28;20029;-39
2021/12/24 12:10:49;;;;;;;7.03;4.18;;;15.90;52.60;;;;;;5117698;28;20011;-42
2021/12/24 12:13:53;;;;;;;8.30;4.40;;;15.90;52.60;;;;;;5118792;28;20012;-40
2021/12/24 12:16:55;;;;;;;7.30;4.30;;;15.90;52.70;;;;;;5119031;28;20032;-40
2021/12/24 12:19:49;;;;;;;7.40;4.30;;;15.80;52.60;;;;;;5102329;28;20047;-40
2021/12/24 12:22:43;;;;;;;6.90;4.10;;;15.80;52.60;;;;;;5119403;28;20020;-39
2021/12/24 12:25:10;;;;;;;7.00;3.80;;;15.90;52.70;;;;;;5119211;28;20012;-40
2021/12/24 12:27:52;;;;;;;8.23;4.55;;;15.90;52.70;;;;;;5118907;28;20016;-42
2021/12/24 12:30:27;;;;;;;6.63;4.20;;;15.90;52.70;;;;;;5118040;28;20019;-42
2021/12/24 12:33:03;;;;;;;7.50;4.25;;;15.90;52.70;;;;;;5118387;28;20016;-40
2021/12/24 12:35:57;;;;;;;7.43;3.90;;;15.90;52.70;;;;;;5118673;28;20019;-40
2021/12/24 12:38:44;;;;;;;6.65;4.40;;;15.80;52.70;;;;;;5099277;28;20023;-40
2021/12/24 12:41:35;;;;;;;6.50;4.00;;;15.90;52.70;;;;;;5118196;28;20028;-41
2021/12/24 12:44:07;;;;;;;8.00;4.07;;;15.90;52.70;;;;;;5116976;28;20077;-39
2021/12/24 12:46:34;;;;;;;7.93;4.15;;;15.90;52.70;;;;;;5117144;28;20070;-40
2021/12/24 12:49:02;;;;;;;5.88;3.88;;;15.90;52.80;;;;;;5116607;28;20093;-41
2021/12/24 12:51:59;;;;;;;6.32;4.00;;;15.90;52.70;;;;;;5117026;28;20040;-39
2021/12/24 12:54:28;;;;;;;7.00;4.00;;;15.90;52.70;;;;;;5116488;28;20008;-40
2021/12/24 12:57:13;;;;;;;9.02;3.90;;;15.90;52.70;;;;;;5117803;28;20016;-41
2021/12/24 13:00:08;;;;;;;8.73;4.47;;;15.90;52.70;;;;;;5118342;28;20028;-41
2021/12/24 13:02:56;;;;;;;6.80;3.88;;;15.90;52.70;;;;;;5117780;28;20020;-39
2021/12/24 13:05:22;;;;;;;7.28;3.95;;;15.90;52.70;;;;;;5117381;28;20084;-42
2021/12/24 13:07:49;;;;;;;6.63;3.95;;;15.90;52.60;;;;;;5117844;28;20028;-42
2021/12/24 13:10:16;;;;;;;8.15;4.47;;;15.90;52.80;;;;;;5100300;28;20052;-41
2021/12/24 13:12:43;;;;;;;6.47;4.10;;;15.90;52.70;;;;;;5118702;28;20080;-40
2021/12/24 13:15:15;;;;;;;6.53;4.30;;;15.90;52.70;;;;;;5119702;28;20012;-41
2021/12/24 13:17:45;;;;;;;6.50;3.78;;;15.90;52.70;;;;;;5118627;28;20050;-40
2021/12/24 13:20:31;;;;;;;8.37;4.13;;;15.90;52.70;;;;;;5118309;28;20023;-46
2021/12/24 13:22:56;;;;;;;6.22;4.10;;;15.90;53.10;;;;;;5101755;28;20031;-41
2021/12/24 13:25:24;;;;;;;7.40;4.28;;;15.90;52.70;;;;;;5099561;28;20015;-40
2021/12/24 13:27:51;;;;;;;5.85;4.00;;;15.90;52.70;;;;;;5117487;28;20083;-41
2021/12/24 13:30:22;;;;;;;6.90;4.28;;;15.90;52.70;;;;;;5117304;28;20500;-44
2021/12/24 13:32:55;;;;;;;6.25;4.07;;;15.90;52.70;;;;;;5100513;28;20076;-40
2021/12/24 13:35:26;;;;;;;7.75;4.15;;;15.90;52.70;;;;;;5117645;28;20041;-41
2021/12/24 13:37:54;;;;;;;7.50;4.57;;;15.90;52.60;;;;;;5117243;28;20023;-41
2021/12/24 13:40:21;;;;;;;5.88;3.83;;;15.90;52.60;;;;;;5100101;28;20093;-42
2021/12/24 13:42:48;;;;;;;6.55;4.32;;;15.90;52.60;;;;;;5119917;28;20016;-45
2021/12/24 13:45:15;;;;;;;6.25;4.18;;;15.90;52.60;;;;;;5119023;28;20016;-40
2021/12/24 13:55:36;;;;;;;6.03;3.75;;;15.90;52.80;;;;;;5119045;28;20049;-41
2021/12/24 13:58:07;;;;;;;7.00;3.95;;;15.90;52.70;;;;;;5117433;28;20031;-40
2021/12/24 14:00:35;;;;;;;7.03;4.50;;;15.90;52.70;;;;;;5116734;28;20072;-40
2021/12/24 14:03:03;;;;;;;6.97;3.90;;;15.90;52.70;;;;;;5115576;28;20023;-41
2021/12/24 14:05:29;;;;;;;7.65;4.28;;;15.80;52.80;;;;;;5115347;28;20015;-40
2021/12/24 14:08:10;;;;;;;7.18;4.30;;;15.90;52.60;;;;;;5116017;28;20027;-40
2021/12/24 14:10:36;;;;;;;8.32;4.50;;;15.80;52.60;;;;;;5116792;28;20024;-41
2021/12/24 14:13:09;;;;;;;6.80;4.07;;;15.80;52.80;;;;;;5117856;28;20039;-46
2021/12/24 14:15:47;;;;;;;7.63;4.65;;;15.80;52.80;;;;;;5116956;28;20378;-39
2021/12/24 14:18:55;;;;;;;7.75;4.63;;;15.80;52.80;;;;;;5116980;28;20039;-41
2021/12/24 14:24:26;;;;;;;8.98;4.90;;;15.80;53.40;;;;;;5014741;28;20038;-42
2021/12/24 14:26:58;;;;;;;7.07;4.40;;;15.80;52.80;;;;;;5012223;28;20042;-40
2021/12/24 14:29:40;;;;;;;6.07;3.92;;;15.80;52.90;;;;;;5013209;28;20034;-43
2021/12/24 14:32:09;;;;;;;7.22;4.25;;;15.80;52.90;;;;;;4996809;28;20030;-42
2021/12/24 14:34:46;;;;;;;7.72;4.88;;;15.80;52.80;;;;;;5013432;28;20033;-40
2021/12/24 14:37:25;;;;;;;6.85;4.10;;;15.80;52.90;;;;;;5013268;28;20086;-41
2021/12/24 14:39:54;;;;;;;6.53;4.07;;;15.80;52.80;;;;;;5013752;28;20026;-40
2021/12/24 14:42:26;;;;;;;8.68;4.47;;;15.80;52.80;;;;;;5014049;28;20018;-45
2021/12/24 14:45:19;;;;;;;6.30;4.13;;;15.80;52.80;;;;;;5014632;28;20509;-40
2021/12/24 14:48:09;;;;;;;5.90;4.00;;;15.80;52.80;;;;;;5012040;28;20129;-41